Flight Track Log - Related Links

Times and Time Zones

All times are in EDT time to prevent confusion due to time zone crossing. See the SKW5516 flight status page for this flight to view local times or setup timezone preferences in your user account.

Time Position Orientation Groundspeed Altitude Reporting Facility
EDT Latitude Longitude Course Direction KTS MPH feet Rate Location/Type
Sat 01:51:00 PM 39.8022 -105.1114 260° West  Level Estimated
Sat 01:52:00 PM 39.7820 -105.2572 260° West  Level Estimated
Sat 01:53:00 PM 39.7616 -105.4031 260° West  Level Estimated
Sat 01:54:00 PM 39.7411 -105.5488 260° West  Level Estimated
Sat 01:55:00 PM 39.7203 -105.6944 260° West  Level Estimated
Sat 01:56:00 PM 39.6994 -105.8400 259° West  Level Estimated
Sat 01:57:00 PM 39.6783 -105.9854 259° West  Level Estimated
Sat 01:58:00 PM 39.6570 -106.1308 259° West  Level Estimated
Sat 01:59:00 PM 39.6356 -106.2761 259° West  Level Estimated
Sat 02:00:00 PM 39.6139 -106.4213 259° West  Level Estimated
Sat 02:01:00 PM 39.5921 -106.5664 259° West  Level Estimated
Sat 02:02:00 PM 39.5701 -106.7114 259° West  Level Estimated
Sat 02:03:00 PM 39.5479 -106.8563 259° West  Level Estimated
Sat 02:04:00 PM 39.5256 -107.0011 259° West  Level Estimated
Sat 02:05:00 PM 39.5030 -107.1458 259° West  Level Estimated
Sat 02:06:00 PM 39.4803 -107.2905 259° West  Level Estimated
Sat 02:07:00 PM 39.4574 -107.4350 258° West  Level Estimated
Sat 02:08:00 PM 39.4343 -107.5794 258° West  Level Estimated
Sat 02:09:00 PM 39.4110 -107.7238 258° West  Level Estimated
Sat 02:10:00 PM 39.3876 -107.8680 258° West  Level Estimated
Sat 02:11:00 PM 39.3640 -108.0122 258° West  Level Estimated
Sat 02:12:00 PM 39.3402 -108.1562 258° West  Level Estimated
Sat 02:13:00 PM 39.3162 -108.3002 258° West  Level Estimated
Sat 02:14:00 PM 39.2921 -108.4441 258° West  Level Estimated
Sat 02:15:00 PM 39.2677 -108.5878 258° West  Level Estimated
Sat 02:16:00 PM 39.2433 -108.7315 258° West  Level Estimated
Sat 02:17:00 PM 39.2186 -108.8750 258° West  Level Estimated
Sat 02:18:00 PM 39.1937 -109.0185 257° West  Level Estimated
Sat 02:19:00 PM 39.1687 -109.1618 257° West  Level Estimated
Sat 02:20:00 PM 39.1435 -109.3051 257° West  Level Estimated
Sat 02:21:00 PM 39.1181 -109.4482 257° West  Level Estimated
Sat 02:22:00 PM 39.0925 -109.5913 257° West  Level Estimated
Sat 02:23:00 PM 39.0668 -109.7342 257° West  Level Estimated
Sat 02:24:00 PM 39.0409 -109.8771 257° West  Level Estimated
Sat 02:25:00 PM 39.0148 -110.0198 257° West  Level Estimated
Sat 02:26:00 PM 38.9886 -110.1624 257° West  Level Estimated
Sat 02:27:00 PM 38.9621 -110.3049 257° West  Level Estimated
Sat 02:28:00 PM 38.9355 -110.4474 257° West  Level Estimated
Sat 02:29:00 PM 38.9088 -110.5897 256° West  Level Estimated
Sat 02:30:00 PM 38.8818 -110.7319 256° West  Level Estimated
Sat 02:31:00 PM 38.8547 -110.8740 256° West  Level Estimated
Sat 02:32:00 PM 38.8274 -111.0159 256° West  Level Estimated
Sat 02:33:00 PM 38.7999 -111.1578 256° West  Level Estimated
Sat 02:34:00 PM 38.7723 -111.2996 256° West  Level Estimated
Sat 02:35:00 PM 38.7445 -111.4412 256° West  Level Estimated
Sat 02:36:00 PM 38.7165 -111.5828 256° West  Level Estimated
Sat 02:37:00 PM 38.6884 -111.7242 256° West  Level Estimated
Sat 02:38:00 PM 38.6601 -111.8655 256° West  Level Estimated
Sat 02:39:00 PM 38.6316 -112.0067 256° West  Level Estimated
Sat 02:40:00 PM 38.6029 -112.1478 255° West  Level Estimated
Sat 02:41:00 PM 38.5741 -112.2888 255° West  Level Estimated
Sat 02:42:00 PM 38.5451 -112.4297 255° West  Level Estimated
Sat 02:43:00 PM 38.5160 -112.5704 255° West  Level Estimated
Sat 02:44:00 PM 38.4866 -112.7111 255° West  Level Estimated
Sat 02:45:00 PM 38.4571 -112.8516 255° West  Level Estimated
Sat 02:46:00 PM 38.4275 -112.9920 255° West  Level Estimated
Sat 02:47:00 PM 38.3976 -113.1323 255° West  Level Estimated
Sat 02:48:00 PM 38.3676 -113.2725 255° West  Level Estimated
Sat 02:49:00 PM 38.3375 -113.4125 255° West  Level Estimated
Sat 02:50:00 PM 38.3071 -113.5525 255° West  Level Estimated
Sat 02:51:00 PM 38.2766 -113.6923 255° West  Level Estimated
Sat 02:52:00 PM 38.2460 -113.8320 254° West  Level Estimated
Sat 02:53:00 PM 38.2151 -113.9716 254° West  Level Estimated
Sat 02:54:00 PM 38.1841 -114.1111 254° West  Level Estimated
Sat 02:55:00 PM 38.1530 -114.2504 254° West  Level Estimated
Sat 02:56:00 PM 38.1216 -114.3896 254° West  Level Estimated
Sat 02:57:00 PM 38.0901 -114.5288 254° West  Level Estimated
Sat 02:58:00 PM 38.0585 -114.6677 254° West  Level Estimated
Sat 02:59:00 PM 38.0267 -114.8066 254° West  Level Estimated
Sat 03:00:00 PM 37.9947 -114.9454 254° West  Level Estimated
Sat 03:01:00 PM 37.9626 -115.0840 254° West  Level Estimated
Sat 03:02:00 PM 37.9302 -115.2225 254° West  Level Estimated
Sat 03:03:00 PM 37.8978 -115.3609 253° West  Level Estimated
Sat 03:04:00 PM 37.8652 -115.4992 253° West  Level Estimated
Sat 03:05:00 PM 37.8324 -115.6373 253° West  Level Estimated
Sat 03:06:00 PM 37.7994 -115.7753 253° West  Level Estimated
Sat 03:07:00 PM 37.7663 -115.9132 253° West  Level Estimated
Sat 03:08:00 PM 37.7330 -116.0510 253° West  Level Estimated
Sat 03:09:00 PM 37.6996 -116.1887 253° West  Level Estimated
Sat 03:10:00 PM 37.6660 -116.3262 253° West  Level Estimated
Sat 03:11:00 PM 37.6323 -116.4636 253° West  Level Estimated
Sat 03:12:00 PM 37.5984 -116.6009 253° West  Level Estimated
Sat 03:13:00 PM 37.5643 -116.7380 253° West  Level Estimated
Sat 03:14:00 PM 37.5300 -116.8750 253° West  Level Estimated
Sat 03:15:00 PM 37.4957 -117.0119 252° West  Level Estimated
Sat 03:16:00 PM 37.4611 -117.1487 252° West  Level Estimated
Sat 03:17:00 PM 37.4264 -117.2853 252° West  Level Estimated
Sat 03:18:00 PM 37.3915 -117.4219 252° West  Level Estimated
Sat 03:19:00 PM 37.3565 -117.5583 252° West  Level Estimated
Sat 03:20:00 PM 37.3214 -117.6945 252° West  Level Estimated
Sat 03:21:00 PM 37.2860 -117.8307 252° West  Level Estimated
Sat 03:22:00 PM 37.2505 -117.9667 252° West  Level Estimated
Sat 03:23:00 PM 37.2149 -118.1025 252° West  Level Estimated
Sat 03:24:00 PM 37.1791 -118.2383 252° West  Level Estimated
Sat 03:25:00 PM 37.1432 -118.3739 252° West  Level Estimated
Sat 03:26:00 PM 37.1070 -118.5094 252° West  Level Estimated
Sat 03:27:00 PM 37.0708 -118.6448 251° West  Level Estimated
Sat 03:28:00 PM 37.0344 -118.7800 251° West  Level Estimated
Sat 03:29:00 PM 36.9978 -118.9151 251° West  Level Estimated
Sat 03:30:00 PM 36.9611 -119.0501 251° West  Level Estimated
Sat 03:31:00 PM 36.9242 -119.1849 251° West  Level Estimated
Sat 03:32:00 PM 36.8872 -119.3196 251° West  Level Estimated
Sat 03:33:00 PM 36.8500 -119.4542 251° West  Level Estimated
Sat 03:34:00 PM 36.8127 -119.5887 251° West  Level Estimated
Sat 03:35:00 PM 36.7764 -119.7187 251° West  Level Estimated
Sat 03:36:00 PM 36.7764 -119.7187 148° Southeast  Level Estimated
Sat 03:37:00 PM 36.7764 -119.7187 148° Southeast  Level Estimated
Sat 03:38:00 PM 36.7764 -119.7187 148° Southeast  Level Estimated
Sat 03:39:00 PM 36.7764 -119.7187 148° Southeast  Level Estimated

Login

Don't have an account? Register now (free) for customized features, flight alerts, and more!